Time;durP1;ratioP1;P1;durP2;ratioP2;P2;SDS_P1;SDS_P2;PMS_P1;PMS_P2;Temp;Humidity;BMP_temperature;BMP_pressure;BME280_temperature;BME280_humidity;BME280_pressure;Samples;Min_cycle;Max_cycle;Signal;HPM_P1;HPM_P2
2023/03/10 00:02:27;;;;;;;3.40;1.50;;;12.60;99.90;;;;;;5054079;28;20340;-68
2023/03/10 00:04:53;;;;;;;2.33;1.37;;;12.60;99.90;;;;;;5049384;28;20522;-68
2023/03/10 00:07:19;;;;;;;2.60;1.43;;;12.60;99.90;;;;;;5048787;28;20568;-68
2023/03/10 00:09:45;;;;;;;2.97;1.63;;;12.70;99.90;;;;;;5051714;28;20187;-67
2023/03/10 00:12:11;;;;;;;3.20;1.60;;;12.70;99.90;;;;;;5054149;28;20459;-67
2023/03/10 00:14:37;;;;;;;2.47;1.60;;;12.70;99.90;;;;;;5053518;28;20434;-68
2023/03/10 00:17:03;;;;;;;2.63;1.60;;;12.70;99.90;;;;;;5053083;28;20468;-68
2023/03/10 00:19:29;;;;;;;4.33;1.50;;;12.70;99.90;;;;;;5051463;28;20195;-67
2023/03/10 00:21:54;;;;;;;2.00;1.37;;;12.70;99.90;;;;;;5046088;28;20519;-66
2023/03/10 00:24:20;;;;;;;3.97;1.40;;;12.60;99.90;;;;;;5048377;28;20434;-67
2023/03/10 00:26:48;;;;;;;7.20;1.30;;;12.60;99.90;;;;;;5049675;28;20206;-67
2023/03/10 00:29:15;;;;;;;1.70;1.20;;;12.50;99.90;;;;;;5055988;28;20261;-67
2023/03/10 00:31:40;;;;;;;2.10;1.40;;;12.50;99.90;;;;;;5051697;28;20437;-67
2023/03/10 00:34:06;;;;;;;2.23;1.37;;;12.50;99.90;;;;;;5051995;28;20467;-67
2023/03/10 00:36:32;;;;;;;2.83;1.47;;;12.50;99.90;;;;;;5047431;28;20254;-67
2023/03/10 00:38:59;;;;;;;3.03;1.50;;;12.30;99.90;;;;;;5046544;28;20194;-67
2023/03/10 00:41:29;;;;;;;2.10;1.17;;;12.30;99.90;;;;;;5051601;28;20473;-67
2023/03/10 00:43:56;;;;;;;2.80;1.33;;;12.20;99.90;;;;;;5047558;28;20526;-67
2023/03/10 00:46:22;;;;;;;2.07;1.20;;;12.20;99.90;;;;;;5052056;28;20472;-67
2023/03/10 00:48:48;;;;;;;2.57;1.60;;;12.10;99.90;;;;;;5051443;28;20499;-67
2023/03/10 00:51:14;;;;;;;2.63;1.40;;;12.00;99.90;;;;;;5054148;28;20461;-67
2023/03/10 00:53:41;;;;;;;3.10;1.60;;;12.00;99.90;;;;;;5054338;28;20500;-67
2023/03/10 00:56:36;;;;;;;2.33;1.57;;;12.00;99.90;;;;;;5051334;28;20835;-67
2023/03/10 00:59:01;;;;;;;4.10;1.50;;;12.10;99.90;;;;;;5039844;28;20441;-67
2023/03/10 01:01:31;;;;;;;3.70;1.70;;;12.10;99.90;;;;;;5055366;28;20441;-67
2023/03/10 01:03:59;;;;;;;3.93;1.50;;;12.10;99.90;;;;;;5050534;28;20677;-67
2023/03/10 01:06:25;;;;;;;2.10;1.50;;;12.00;99.90;;;;;;5055118;28;20849;-68
2023/03/10 01:08:51;;;;;;;3.90;1.70;;;11.90;99.90;;;;;;5046788;28;20439;-67
2023/03/10 01:11:19;;;;;;;2.20;1.50;;;12.00;99.90;;;;;;5051928;28;20213;-68
2023/03/10 01:13:45;;;;;;;2.00;1.40;;;12.00;99.90;;;;;;5047667;28;20445;-68
2023/03/10 01:16:11;;;;;;;2.50;1.50;;;11.90;99.90;;;;;;5048520;28;20465;-68
2023/03/10 01:18:37;;;;;;;3.00;1.70;;;11.80;99.90;;;;;;5049934;28;20456;-68
2023/03/10 01:21:03;;;;;;;3.80;1.80;;;11.80;99.90;;;;;;5051256;28;20194;-69
2023/03/10 01:23:29;;;;;;;2.07;1.53;;;11.90;99.90;;;;;;5052038;28;20211;-68
2023/03/10 01:25:55;;;;;;;3.80;1.30;;;11.90;99.90;;;;;;5044854;28;20449;-68
2023/03/10 01:28:20;;;;;;;3.83;1.83;;;11.90;99.90;;;;;;5047730;28;20252;-68
2023/03/10 01:30:47;;;;;;;3.33;1.57;;;12.00;99.90;;;;;;5054689;28;20179;-68
2023/03/10 01:33:13;;;;;;;3.57;1.43;;;12.10;99.90;;;;;;5053841;28;20266;-68
2023/03/10 01:35:40;;;;;;;4.30;1.83;;;12.00;99.90;;;;;;5048734;28;20451;-68
2023/03/10 01:38:06;;;;;;;3.13;1.30;;;12.00;99.90;;;;;;5047451;28;20481;-68
2023/03/10 01:40:32;;;;;;;3.73;1.93;;;11.90;99.90;;;;;;5055001;28;20863;-68
2023/03/10 01:43:26;;;;;;;5.10;2.53;;;11.70;99.90;;;;;;5048186;28;20511;-69
2023/03/10 01:45:51;;;;;;;3.67;1.60;;;11.70;99.90;;;;;;5046969;28;20526;-68
2023/03/10 01:48:20;;;;;;;2.43;1.37;;;11.70;99.90;;;;;;5051869;28;20452;-68
2023/03/10 01:50:50;;;;;;;2.50;1.50;;;11.80;99.90;;;;;;5049626;28;20184;-69
2023/03/10 01:53:18;;;;;;;3.70;1.77;;;11.70;99.90;;;;;;5054565;28;20431;-68
2023/03/10 01:55:51;;;;;;;3.30;1.80;;;11.50;99.90;;;;;;5048840;28;20548;-68
2023/03/10 01:58:21;;;;;;;5.37;1.83;;;11.50;99.90;;;;;;5052057;28;20449;-68
2023/03/10 02:00:48;;;;;;;4.23;1.60;;;11.50;99.90;;;;;;5048227;28;20888;-68
2023/03/10 02:03:21;;;;;;;2.40;1.60;;;11.50;99.90;;;;;;5053681;28;20488;-68
2023/03/10 02:05:52;;;;;;;3.87;1.70;;;11.50;99.90;;;;;;5051022;28;20437;-68
2023/03/10 02:08:18;;;;;;;4.20;2.20;;;11.50;99.90;;;;;;5048588;28;20441;-68
2023/03/10 02:10:44;;;;;;;3.90;1.90;;;11.50;99.90;;;;;;5049756;28;20834;-68
2023/03/10 02:13:10;;;;;;;5.27;1.60;;;11.60;99.90;;;;;;5048654;28;20485;-68
2023/03/10 02:15:36;;;;;;;2.47;1.70;;;11.50;99.90;;;;;;5051129;28;20953;-68
2023/03/10 02:18:05;;;;;;;3.10;1.60;;;11.50;99.90;;;;;;5049647;28;20694;-68
2023/03/10 02:20:39;;;;;;;4.23;1.70;;;11.50;99.90;;;;;;5050430;28;20614;-68
2023/03/10 02:23:06;;;;;;;3.63;1.80;;;11.60;99.90;;;;;;5049175;28;20533;-68
2023/03/10 02:25:35;;;;;;;2.23;1.50;;;11.60;99.90;;;;;;5052474;28;20440;-68
2023/03/10 02:28:00;;;;;;;3.60;1.40;;;11.50;99.90;;;;;;5049246;28;20831;-68
2023/03/10 02:30:34;;;;;;;1.97;1.37;;;11.60;99.90;;;;;;5051548;28;20445;-68
2023/03/10 02:33:13;;;;;;;2.90;1.40;;;11.60;99.90;;;;;;5054794;28;20187;-68
2023/03/10 02:35:39;;;;;;;2.10;1.30;;;11.60;99.90;;;;;;5058108;28;21040;-68
2023/03/10 02:38:05;;;;;;;2.80;1.60;;;11.60;99.90;;;;;;5048610;28;20471;-68
2023/03/10 02:40:36;;;;;;;2.30;1.60;;;11.50;99.90;;;;;;5056164;28;20923;-68
2023/03/10 02:43:14;;;;;;;2.80;1.43;;;11.60;99.90;;;;;;5056044;28;20939;-68
2023/03/10 02:45:43;;;;;;;2.13;1.30;;;11.60;99.90;;;;;;5052983;28;20429;-68
2023/03/10 02:48:12;;;;;;;3.60;1.60;;;11.70;99.90;;;;;;5053570;28;20534;-68
2023/03/10 02:50:40;;;;;;;2.87;1.50;;;11.70;99.90;;;;;;5053326;28;21000;-68
2023/03/10 02:53:12;;;;;;;1.80;1.20;;;11.70;99.90;;;;;;5051334;28;20441;-68
2023/03/10 02:55:37;;;;;;;1.87;1.47;;;11.70;99.90;;;;;;5056982;28;20441;-68
2023/03/10 02:58:03;;;;;;;3.70;1.50;;;11.70;99.90;;;;;;5047092;28;20957;-68
2023/03/10 03:00:29;;;;;;;2.10;1.60;;;11.70;99.90;;;;;;5051556;28;20191;-68
2023/03/10 03:02:55;;;;;;;3.00;1.70;;;11.80;99.90;;;;;;5051227;28;20680;-68
2023/03/10 03:05:20;;;;;;;2.00;1.60;;;11.80;99.90;;;;;;5051549;28;20455;-68
2023/03/10 03:07:46;;;;;;;2.30;1.40;;;11.80;99.90;;;;;;5052581;28;20215;-68
2023/03/10 03:10:11;;;;;;;2.37;1.50;;;11.80;99.90;;;;;;5058173;28;20278;-68
2023/03/10 03:12:37;;;;;;;2.10;1.70;;;11.80;99.90;;;;;;5054972;28;20202;-68
2023/03/10 03:15:04;;;;;;;2.90;1.40;;;11.90;99.90;;;;;;5053976;28;20191;-68
2023/03/10 03:17:29;;;;;;;2.67;1.63;;;11.80;99.90;;;;;;5055297;28;20215;-68
2023/03/10 03:19:55;;;;;;;1.63;1.20;;;11.90;99.90;;;;;;5057750;28;20963;-68
2023/03/10 03:22:21;;;;;;;3.63;1.50;;;11.90;99.90;;;;;;5056496;28;20461;-68
2023/03/10 03:24:46;;;;;;;2.20;1.47;;;11.90;99.90;;;;;;5052417;28;20187;-67
2023/03/10 03:27:12;;;;;;;3.50;1.50;;;11.90;99.90;;;;;;5053584;28;20204;-67
2023/03/10 03:29:37;;;;;;;3.00;1.50;;;11.80;99.90;;;;;;5049778;28;20183;-67
2023/03/10 03:32:03;;;;;;;2.30;1.47;;;11.80;99.90;;;;;;5049034;28;21488;-68
2023/03/10 03:34:29;;;;;;;3.10;1.20;;;11.80;99.90;;;;;;5055290;28;20256;-67
2023/03/10 03:36:54;;;;;;;3.30;1.70;;;11.80;99.90;;;;;;5047363;28;20207;-68
2023/03/10 03:39:20;;;;;;;2.67;1.37;;;11.70;99.90;;;;;;5057125;28;20217;-67
2023/03/10 03:41:47;;;;;;;2.00;1.23;;;11.80;99.90;;;;;;5052512;28;20258;-67
2023/03/10 03:44:12;;;;;;;2.23;1.37;;;11.70;99.90;;;;;;5053154;28;20310;-68
2023/03/10 03:46:38;;;;;;;2.13;1.40;;;11.70;99.90;;;;;;5044184;28;20559;-67
2023/03/10 03:49:03;;;;;;;1.80;1.40;;;11.70;99.90;;;;;;5053778;28;20260;-67
2023/03/10 03:51:29;;;;;;;2.10;1.40;;;11.80;99.90;;;;;;5060161;28;20229;-68
2023/03/10 03:53:54;;;;;;;2.20;1.37;;;11.80;99.90;;;;;;5055795;28;20186;-68
2023/03/10 03:56:20;;;;;;;2.93;1.77;;;11.70;99.90;;;;;;5047918;28;20208;-68
2023/03/10 03:58:45;;;;;;;3.80;1.70;;;11.70;99.90;;;;;;5051545;28;20206;-68
2023/03/10 04:01:11;;;;;;;2.40;1.30;;;11.80;99.90;;;;;;5053522;28;20267;-68
2023/03/10 04:03:37;;;;;;;2.33;1.33;;;11.80;99.90;;;;;;5052889;28;20288;-68
2023/03/10 04:06:06;;;;;;;2.40;1.60;;;11.80;99.90;;;;;;5052395;28;20433;-68
2023/03/10 04:08:32;;;;;;;3.77;1.50;;;11.80;99.90;;;;;;5050104;28;20183;-68
2023/03/10 04:10:57;;;;;;;2.33;1.30;;;11.90;99.90;;;;;;5047939;28;20582;-68
2023/03/10 04:13:23;;;;;;;1.70;1.13;;;11.90;99.90;;;;;;5055020;28;20179;-68
2023/03/10 04:15:57;;;;;;;6.30;1.90;;;11.90;99.90;;;;;;5052270;28;20184;-69
2023/03/10 04:18:23;;;;;;;2.20;1.43;;;11.90;99.90;;;;;;5048853;28;20179;-68
2023/03/10 04:20:48;;;;;;;4.17;1.47;;;11.90;99.90;;;;;;5055393;28;20444;-68
2023/03/10 04:23:14;;;;;;;1.90;1.30;;;11.90;99.90;;;;;;5048241;28;21053;-68
2023/03/10 04:25:42;;;;;;;1.70;1.27;;;11.90;99.90;;;;;;5047118;28;20175;-69
2023/03/10 04:28:08;;;;;;;3.80;1.87;;;11.90;99.90;;;;;;5047595;28;21164;-68
2023/03/10 04:30:33;;;;;;;2.10;1.30;;;11.90;99.90;;;;;;5052694;28;20434;-68
2023/03/10 04:33:00;;;;;;;4.03;1.40;;;11.90;99.90;;;;;;5050587;28;20437;-67
2023/03/10 04:35:27;;;;;;;2.40;1.40;;;11.90;99.90;;;;;;5058233;28;20183;-70
2023/03/10 04:37:52;;;;;;;6.63;1.33;;;11.90;99.90;;;;;;5046509;28;20450;-68
2023/03/10 04:40:18;;;;;;;2.83;1.50;;;11.80;99.90;;;;;;5054709;28;20799;-68
2023/03/10 04:42:44;;;;;;;2.83;1.83;;;11.70;99.90;;;;;;5052613;28;20270;-68
2023/03/10 04:45:10;;;;;;;4.43;1.80;;;11.60;99.90;;;;;;5049083;28;20433;-68
2023/03/10 04:47:36;;;;;;;4.30;1.60;;;11.70;99.90;;;;;;5055568;28;20596;-68
2023/03/10 04:50:03;;;;;;;2.03;1.30;;;11.60;99.90;;;;;;5053636;28;20417;-67
2023/03/10 04:52:28;;;;;;;3.47;1.63;;;11.60;99.90;;;;;;5049728;28;21007;-68
2023/03/10 04:54:54;;;;;;;4.40;1.50;;;11.60;99.90;;;;;;5052125;28;20433;-68
2023/03/10 04:57:20;;;;;;;4.10;2.13;;;11.60;99.90;;;;;;5052142;28;20268;-68
2023/03/10 04:59:45;;;;;;;4.70;1.83;;;11.60;99.90;;;;;;5054497;28;20290;-68
2023/03/10 05:02:11;;;;;;;2.30;1.70;;;11.60;99.90;;;;;;5053404;28;20256;-68
2023/03/10 05:04:38;;;;;;;4.80;1.67;;;11.60;99.90;;;;;;5053090;28;20270;-67
2023/03/10 05:07:03;;;;;;;2.17;1.50;;;11.60;99.90;;;;;;5053800;28;20194;-67
2023/03/10 05:09:29;;;;;;;3.93;1.70;;;11.60;99.90;;;;;;5052060;28;20429;-68
2023/03/10 05:11:54;;;;;;;6.07;1.70;;;11.60;99.90;;;;;;5052994;28;20672;-68
2023/03/10 05:14:20;;;;;;;4.00;1.70;;;11.60;99.90;;;;;;5056997;28;20662;-67
2023/03/10 05:16:49;;;;;;;2.60;1.47;;;11.60;99.90;;;;;;5055673;28;20199;-69
2023/03/10 05:19:14;;;;;;;3.97;1.80;;;11.60;99.90;;;;;;5054705;28;20647;-67
2023/03/10 05:21:40;;;;;;;2.20;1.40;;;11.60;99.90;;;;;;5053336;28;20431;-67
2023/03/10 05:24:05;;;;;;;3.80;1.80;;;11.60;99.90;;;;;;5045976;28;20211;-67
2023/03/10 05:26:31;;;;;;;5.13;1.60;;;11.70;99.90;;;;;;5047532;28;20203;-69
2023/03/10 05:28:57;;;;;;;4.13;1.63;;;11.60;99.90;;;;;;5050802;28;20530;-68
2023/03/10 05:31:24;;;;;;;3.43;1.90;;;11.60;99.90;;;;;;5053954;28;20175;-68
2023/03/10 05:33:51;;;;;;;2.30;1.60;;;11.70;99.90;;;;;;5054544;28;20198;-68
2023/03/10 05:36:16;;;;;;;6.40;2.03;;;11.70;99.90;;;;;;5052084;28;20462;-68
2023/03/10 05:38:42;;;;;;;2.47;1.40;;;11.80;99.90;;;;;;5050231;28;20863;-68
2023/03/10 05:41:09;;;;;;;3.17;1.93;;;11.80;99.90;;;;;;5047744;28;20195;-68
2023/03/10 05:43:35;;;;;;;2.83;1.70;;;11.80;99.90;;;;;;5056492;28;20434;-68
2023/03/10 05:46:01;;;;;;;3.47;1.80;;;11.80;99.90;;;;;;5047381;28;20445;-68
2023/03/10 05:48:28;;;;;;;5.30;1.53;;;11.80;99.90;;;;;;5054307;28;20454;-68
2023/03/10 05:51:09;;;;;;;5.40;1.70;;;11.80;99.90;;;;;;5050440;28;20451;-68
2023/03/10 05:53:35;;;;;;;4.97;1.93;;;11.90;99.90;;;;;;5051927;28;20321;-68
2023/03/10 05:56:16;;;;;;;2.40;1.53;;;11.80;99.90;;;;;;5048325;28;20429;-68
2023/03/10 05:58:42;;;;;;;3.43;1.97;;;11.80;99.90;;;;;;5051482;28;21273;-68
2023/03/10 06:01:08;;;;;;;3.50;1.80;;;11.90;99.90;;;;;;5049696;28;20430;-68
2023/03/10 06:03:35;;;;;;;2.90;1.67;;;11.90;99.90;;;;;;5050981;28;21048;-68
2023/03/10 06:06:01;;;;;;;4.37;1.97;;;11.90;99.90;;;;;;5047802;28;20519;-69
2023/03/10 06:08:27;;;;;;;2.57;1.40;;;11.90;99.90;;;;;;5051078;28;20964;-68
2023/03/10 06:10:53;;;;;;;3.67;1.67;;;11.90;99.90;;;;;;5048216;28;20475;-68
2023/03/10 06:13:19;;;;;;;5.67;1.90;;;11.90;99.90;;;;;;5049766;28;20545;-68
2023/03/10 06:15:53;;;;;;;4.70;2.23;;;11.90;99.90;;;;;;5045423;28;20816;-67
2023/03/10 06:18:19;;;;;;;3.07;1.80;;;11.90;99.90;;;;;;5048837;28;21006;-69
2023/03/10 06:20:46;;;;;;;2.27;1.20;;;11.90;99.90;;;;;;5049459;28;20885;-69
2023/03/10 06:23:16;;;;;;;2.80;1.60;;;11.80;99.90;;;;;;5051818;28;20875;-69
2023/03/10 06:25:42;;;;;;;3.40;1.57;;;11.80;99.90;;;;;;5052318;28;20533;-68
2023/03/10 06:28:08;;;;;;;2.30;1.30;;;11.70;99.90;;;;;;5048282;28;20981;-68
2023/03/10 06:30:34;;;;;;;4.00;1.60;;;11.70;99.90;;;;;;5048943;28;20994;-69
2023/03/10 06:33:00;;;;;;;2.00;1.20;;;11.70;99.90;;;;;;5053881;28;20429;-69
2023/03/10 06:35:26;;;;;;;2.53;1.33;;;11.70;99.90;;;;;;5050654;28;20195;-68
2023/03/10 06:37:52;;;;;;;2.37;1.60;;;11.80;99.90;;;;;;5051969;28;20449;-68
2023/03/10 06:40:18;;;;;;;1.83;1.50;;;11.80;99.90;;;;;;5050069;28;20437;-67
2023/03/10 06:42:43;;;;;;;5.23;1.60;;;11.80;99.90;;;;;;5050259;28;20715;-69
2023/03/10 06:45:14;;;;;;;2.47;1.40;;;11.80;99.90;;;;;;5050461;28;20482;-68
2023/03/10 06:47:39;;;;;;;2.53;1.73;;;11.70;99.90;;;;;;5048089;28;20218;-67
2023/03/10 06:50:05;;;;;;;2.60;1.23;;;11.70;99.90;;;;;;5049356;28;20448;-68
2023/03/10 06:52:33;;;;;;;2.63;1.33;;;11.70;99.90;;;;;;5051649;28;20208;-67
2023/03/10 06:54:59;;;;;;;3.40;1.40;;;11.70;99.90;;;;;;5045273;28;20518;-66
2023/03/10 06:57:25;;;;;;;2.57;1.20;;;11.70;99.90;;;;;;5048926;28;20453;-67
2023/03/10 06:59:51;;;;;;;2.80;1.50;;;11.70;99.90;;;;;;5052891;28;20502;-67
2023/03/10 07:02:18;;;;;;;1.60;1.10;;;11.70;99.90;;;;;;5051883;28;20959;-68
2023/03/10 07:04:44;;;;;;;1.97;1.47;;;11.70;99.90;;;;;;5052994;28;20193;-67
2023/03/10 07:07:12;;;;;;;4.03;1.40;;;11.80;99.90;;;;;;5046000;28;20925;-68
2023/03/10 07:09:37;;;;;;;2.17;1.23;;;11.80;99.90;;;;;;5048677;28;20915;-67
2023/03/10 07:12:03;;;;;;;1.50;1.20;;;12.00;99.90;;;;;;5051111;28;20460;-67
2023/03/10 07:14:28;;;;;;;2.83;1.20;;;12.10;99.90;;;;;;5054652;28;20186;-67
2023/03/10 07:16:55;;;;;;;2.70;1.73;;;12.10;99.90;;;;;;5052044;28;20203;-68
2023/03/10 07:19:20;;;;;;;4.70;1.20;;;12.20;99.90;;;;;;5051477;28;21069;-67
2023/03/10 07:21:46;;;;;;;1.93;1.30;;;12.20;99.90;;;;;;5056193;28;20442;-67
2023/03/10 07:24:12;;;;;;;2.90;1.33;;;12.00;99.90;;;;;;5050315;28;20606;-69
2023/03/10 07:26:37;;;;;;;3.20;1.77;;;11.90;99.90;;;;;;5052458;28;20887;-67
2023/03/10 07:29:03;;;;;;;2.37;1.13;;;11.70;99.90;;;;;;5053559;28;20190;-67
2023/03/10 07:31:29;;;;;;;2.23;1.23;;;11.60;99.90;;;;;;5052118;28;20628;-67
2023/03/10 07:33:55;;;;;;;2.80;1.20;;;11.30;99.90;;;;;;5052905;28;20187;-67
2023/03/10 07:36:21;;;;;;;4.40;1.97;;;11.20;99.90;;;;;;5045921;28;20461;-67
2023/03/10 07:38:47;;;;;;;8.80;1.70;;;11.20;99.90;;;;;;5045455;28;20269;-67
2023/03/10 07:41:15;;;;;;;2.87;1.67;;;11.10;99.90;;;;;;5047882;28;20528;-67
2023/03/10 07:43:41;;;;;;;3.50;1.70;;;11.00;99.90;;;;;;5045372;28;20330;-66
2023/03/10 07:46:09;;;;;;;2.37;1.40;;;10.70;99.90;;;;;;5046102;28;20454;-65
2023/03/10 07:48:34;;;;;;;3.47;1.37;;;10.60;99.90;;;;;;5048407;28;20273;-67
2023/03/10 07:51:00;;;;;;;4.63;1.60;;;10.60;99.90;;;;;;5052450;28;20456;-66
2023/03/10 07:53:27;;;;;;;4.40;1.60;;;10.50;99.90;;;;;;5051929;28;20244;-65
2023/03/10 07:55:53;;;;;;;4.93;1.80;;;10.50;99.90;;;;;;5053843;28;20441;-66
2023/03/10 07:58:19;;;;;;;3.93;1.63;;;10.50;99.90;;;;;;5053443;28;20448;-65
2023/03/10 08:00:44;;;;;;;3.77;1.50;;;10.50;99.90;;;;;;5051936;28;20965;-66
2023/03/10 08:03:10;;;;;;;3.17;2.40;;;10.50;99.90;;;;;;5056494;28;20457;-66
2023/03/10 08:05:40;;;;;;;6.30;1.97;;;10.40;99.90;;;;;;5050243;28;20244;-66
2023/03/10 08:08:06;;;;;;;5.10;1.73;;;10.40;99.90;;;;;;5046901;28;20295;-66
2023/03/10 08:10:32;;;;;;;6.30;1.87;;;10.50;99.90;;;;;;5044764;28;20548;-67
2023/03/10 08:12:57;;;;;;;4.97;2.53;;;10.60;99.90;;;;;;5045015;28;20445;-67
2023/03/10 08:15:23;;;;;;;4.60;2.10;;;10.60;99.90;;;;;;5048065;28;20320;-66
2023/03/10 08:17:49;;;;;;;6.03;1.73;;;10.70;99.90;;;;;;5054760;28;20254;-66
2023/03/10 08:20:15;;;;;;;7.97;1.73;;;10.70;99.90;;;;;;5053194;28;20449;-67
2023/03/10 08:22:40;;;;;;;8.70;2.47;;;10.60;99.90;;;;;;5052906;28;20278;-66
2023/03/10 08:25:06;;;;;;;5.60;2.50;;;10.70;99.90;;;;;;5052676;28;20444;-67
2023/03/10 08:27:32;;;;;;;12.03;2.53;;;10.90;99.90;;;;;;5050752;28;20204;-68
2023/03/10 08:29:58;;;;;;;4.57;2.00;;;10.90;99.90;;;;;;5056707;28;20278;-67
2023/03/10 08:32:23;;;;;;;4.47;1.80;;;10.80;99.90;;;;;;5052093;28;20237;-67
2023/03/10 08:34:49;;;;;;;9.27;1.83;;;11.00;99.90;;;;;;5060157;28;20187;-67
2023/03/10 08:37:15;;;;;;;6.27;1.83;;;10.80;99.90;;;;;;5052378;28;20567;-67
2023/03/10 08:39:40;;;;;;;6.83;2.00;;;10.80;99.90;;;;;;5049113;28;20196;-67
2023/03/10 08:42:09;;;;;;;5.40;1.70;;;10.80;99.90;;;;;;5049782;28;20187;-67
2023/03/10 08:44:35;;;;;;;5.30;1.67;;;10.80;99.90;;;;;;5052739;28;20183;-66
2023/03/10 08:47:00;;;;;;;8.37;2.17;;;10.90;99.90;;;;;;5049910;28;20472;-67
2023/03/10 08:49:26;;;;;;;3.93;2.10;;;10.80;99.90;;;;;;5055488;28;20179;-67
2023/03/10 08:51:52;;;;;;;8.60;2.33;;;10.80;99.90;;;;;;5052165;28;20259;-66
2023/03/10 08:54:19;;;;;;;8.83;1.90;;;10.80;99.90;;;;;;5052565;28;20880;-69
2023/03/10 08:56:45;;;;;;;6.00;1.83;;;10.90;99.90;;;;;;5052895;28;20198;-67
2023/03/10 08:59:10;;;;;;;4.50;2.00;;;11.00;99.90;;;;;;5051351;28;20486;-65
2023/03/10 09:01:37;;;;;;;5.90;1.80;;;10.90;99.90;;;;;;5050299;28;20262;-65
2023/03/10 09:04:05;;;;;;;5.70;2.53;;;10.90;99.90;;;;;;5053501;28;20290;-66
2023/03/10 09:06:30;;;;;;;6.60;1.90;;;10.90;99.90;;;;;;5052857;28;20453;-66
2023/03/10 09:08:56;;;;;;;3.80;1.37;;;10.90;99.90;;;;;;5050201;28;20476;-67
2023/03/10 09:11:25;;;;;;;4.23;1.70;;;10.80;99.90;;;;;;5050026;28;20179;-65
2023/03/10 09:13:51;;;;;;;6.60;2.13;;;11.00;99.90;;;;;;5052366;28;20930;-65
2023/03/10 09:16:17;;;;;;;4.83;2.07;;;11.10;99.90;;;;;;5048670;28;20433;-66
2023/03/10 09:18:43;;;;;;;2.47;1.73;;;11.10;99.90;;;;;;5052419;28;20429;-67
2023/03/10 09:21:11;;;;;;;7.03;2.10;;;11.10;99.90;;;;;;5050851;28;21051;-65
2023/03/10 09:23:40;;;;;;;7.30;1.70;;;11.20;99.90;;;;;;5050308;28;20457;-66
2023/03/10 09:26:05;;;;;;;6.47;1.80;;;11.20;99.90;;;;;;5051110;28;20441;-65
2023/03/10 09:28:31;;;;;;;4.73;1.70;;;11.20;99.90;;;;;;5050422;28;20434;-66
2023/03/10 09:30:56;;;;;;;5.93;2.10;;;11.30;99.90;;;;;;5049411;28;20176;-66
2023/03/10 09:33:22;;;;;;;7.53;1.97;;;11.40;99.90;;;;;;5050964;28;20183;-65
2023/03/10 09:35:49;;;;;;;3.73;1.77;;;11.40;99.90;;;;;;5045912;28;20195;-65
2023/03/10 09:38:14;;;;;;;6.15;1.90;;;11.50;99.90;;;;;;5049970;28;20437;-65
2023/03/10 09:40:47;;;;;;;5.50;1.80;;;11.50;99.90;;;;;;5049521;28;20588;-65
2023/03/10 09:43:19;;;;;;;5.37;2.03;;;11.40;99.90;;;;;;5049571;28;20472;-64
2023/03/10 09:46:04;;;;;;;6.73;1.80;;;11.50;99.90;;;;;;5045720;28;20472;-65
2023/03/10 09:49:03;;;;;;;4.17;1.73;;;11.40;99.90;;;;;;5049955;28;20433;-66
2023/03/10 09:51:29;;;;;;;4.00;1.80;;;11.50;99.90;;;;;;5050602;28;21287;-66
2023/03/10 09:54:11;;;;;;;5.33;2.80;;;11.60;99.90;;;;;;5039305;28;20534;-66
2023/03/10 09:56:37;;;;;;;2.70;1.57;;;11.50;99.90;;;;;;5048697;28;20655;-66
2023/03/10 09:59:15;;;;;;;4.93;2.07;;;11.60;99.90;;;;;;5045997;28;20456;-65
2023/03/10 10:01:44;;;;;;;3.93;1.50;;;11.70;99.90;;;;;;5048291;28;20445;-65
2023/03/10 10:04:26;;;;;;;5.80;2.03;;;11.50;99.90;;;;;;5051051;28;20471;-65
2023/03/10 10:06:51;;;;;;;3.50;1.80;;;11.50;99.90;;;;;;5046261;28;20457;-66
2023/03/10 10:09:19;;;;;;;3.40;1.70;;;11.40;99.90;;;;;;5048013;28;20452;-66
2023/03/10 10:11:45;;;;;;;10.63;2.37;;;11.40;99.90;;;;;;5049840;28;20183;-65
2023/03/10 10:14:27;;;;;;;5.87;1.90;;;11.30;99.90;;;;;;5050961;28;20467;-66
2023/03/10 10:17:16;;;;;;;4.33;1.50;;;11.20;99.90;;;;;;5044751;28;20204;-66
2023/03/10 10:19:44;;;;;;;5.20;2.50;;;11.30;99.90;;;;;;5048242;28;20495;-65
2023/03/10 10:22:19;;;;;;;12.30;3.00;;;11.30;99.90;;;;;;5049188;28;20448;-65
2023/03/10 10:25:16;;;;;;;5.70;2.00;;;11.40;99.90;;;;;;5052885;28;20516;-65
2023/03/10 10:27:44;;;;;;;5.83;2.10;;;11.30;99.90;;;;;;5017355;28;21168;-64
2023/03/10 10:30:35;;;;;;;4.50;1.63;;;11.30;99.90;;;;;;5049208;28;20425;-64
2023/03/10 10:33:04;;;;;;;3.57;2.30;;;11.30;99.90;;;;;;5048231;28;20433;-65
2023/03/10 10:35:33;;;;;;;3.33;2.10;;;11.30;99.90;;;;;;5051424;28;20465;-65
2023/03/10 10:38:02;;;;;;;3.13;1.97;;;11.20;99.90;;;;;;5048661;28;20485;-66
2023/03/10 10:40:32;;;;;;;5.10;1.90;;;11.20;99.90;;;;;;5050721;28;20549;-66
2023/03/10 10:43:04;;;;;;;4.53;2.20;;;11.30;99.90;;;;;;5052998;28;21028;-66
2023/03/10 10:45:38;;;;;;;6.30;2.00;;;11.30;99.90;;;;;;5050315;28;20690;-66
2023/03/10 10:48:05;;;;;;;3.50;1.80;;;11.20;99.90;;;;;;5050949;28;20461;-65
2023/03/10 10:50:33;;;;;;;7.73;2.03;;;11.30;99.90;;;;;;5054263;28;20437;-66
2023/03/10 10:53:19;;;;;;;12.83;2.17;;;11.30;99.90;;;;;;5052012;28;20812;-66
2023/03/10 10:55:58;;;;;;;6.90;2.70;;;11.30;99.90;;;;;;5056093;28;20524;-66
2023/03/10 10:58:34;;;;;;;3.70;1.80;;;11.40;99.90;;;;;;5048830;28;20469;-67
2023/03/10 11:01:06;;;;;;;3.43;1.80;;;11.40;99.90;;;;;;5056106;28;20436;-66
2023/03/10 11:03:39;;;;;;;4.87;1.60;;;11.40;99.90;;;;;;5050291;28;20465;-66
2023/03/10 11:06:21;;;;;;;3.53;1.80;;;11.40;99.90;;;;;;5044873;28;20433;-66
2023/03/10 11:08:51;;;;;;;4.20;1.87;;;11.50;99.90;;;;;;5053970;28;20889;-66
2023/03/10 11:11:43;;;;;;;7.53;2.07;;;11.60;99.90;;;;;;5051674;28;20494;-65
2023/03/10 11:14:20;;;;;;;7.40;2.10;;;11.80;99.90;;;;;;5048810;28;20994;-66
2023/03/10 11:17:09;;;;;;;5.43;2.17;;;11.70;99.90;;;;;;5050493;28;20453;-65
2023/03/10 11:19:50;;;;;;;3.70;1.67;;;11.70;99.90;;;;;;5053161;28;20984;-65
2023/03/10 11:22:25;;;;;;;4.47;1.70;;;11.70;99.90;;;;;;5054240;28;20502;-63
2023/03/10 11:25:20;;;;;;;2.63;1.57;;;11.60;99.90;;;;;;5048767;28;20491;-67
2023/03/10 11:28:17;;;;;;;5.13;1.70;;;11.70;99.90;;;;;;5053810;28;20841;-66
2023/03/10 11:30:52;;;;;;;2.37;1.53;;;11.50;99.90;;;;;;5053620;28;20436;-66
2023/03/10 11:33:38;;;;;;;6.90;1.80;;;11.60;99.90;;;;;;5054156;28;20529;-66
2023/03/10 11:36:25;;;;;;;3.63;1.77;;;11.50;99.90;;;;;;5049833;28;20549;-67
2023/03/10 11:38:58;;;;;;;6.00;2.93;;;11.50;99.90;;;;;;5045630;28;20471;-66
2023/03/10 11:41:29;;;;;;;5.33;2.03;;;11.40;99.90;;;;;;5052411;28;20449;-65
2023/03/10 11:43:57;;;;;;;4.80;1.67;;;11.40;99.90;;;;;;5048799;28;20491;-66
2023/03/10 11:46:29;;;;;;;5.13;1.80;;;11.40;99.90;;;;;;5051694;28;20458;-66
2023/03/10 11:49:13;;;;;;;5.73;2.27;;;11.40;99.90;;;;;;5050820;28;21023;-66
2023/03/10 11:51:49;;;;;;;5.93;2.33;;;11.40;99.90;;;;;;5050026;28;20491;-66
2023/03/10 11:54:24;;;;;;;6.13;2.10;;;11.50;99.90;;;;;;5050843;28;21025;-66
2023/03/10 11:56:51;;;;;;;3.27;1.80;;;11.50;99.90;;;;;;5053048;28;20461;-66
2023/03/10 11:59:22;;;;;;;7.43;2.13;;;11.50;99.90;;;;;;5046872;28;20444;-66
2023/03/10 12:01:58;;;;;;;6.00;1.70;;;11.50;99.90;;;;;;5052149;28;21303;-65
2023/03/10 12:04:42;;;;;;;4.57;1.80;;;11.60;99.90;;;;;;5052420;28;20976;-66
2023/03/10 12:07:08;;;;;;;9.00;2.03;;;11.50;99.90;;;;;;5050811;28;20458;-65
2023/03/10 12:09:50;;;;;;;2.77;1.40;;;11.50;99.90;;;;;;5048484;28;21062;-67
2023/03/10 12:12:39;;;;;;;5.53;1.83;;;11.50;99.90;;;;;;5048579;28;21195;-67
2023/03/10 12:15:22;;;;;;;5.07;2.20;;;11.40;99.90;;;;;;5051393;28;20442;-66
2023/03/10 12:17:49;;;;;;;3.87;1.87;;;11.40;99.90;;;;;;5049514;28;20461;-65
2023/03/10 12:20:15;;;;;;;3.43;2.00;;;11.30;99.90;;;;;;5052097;28;20445;-65
2023/03/10 12:22:45;;;;;;;7.13;2.10;;;11.30;99.90;;;;;;5051142;28;20544;-65
2023/03/10 12:25:29;;;;;;;7.30;2.20;;;11.30;99.90;;;;;;5046989;28;20180;-66
2023/03/10 12:28:25;;;;;;;3.33;1.57;;;11.30;99.90;;;;;;5052431;28;20500;-65
2023/03/10 12:30:55;;;;;;;5.23;2.37;;;11.30;99.90;;;;;;5049673;28;20437;-65
2023/03/10 12:33:33;;;;;;;4.73;1.73;;;11.30;99.90;;;;;;5049657;28;20952;-65
2023/03/10 12:36:11;;;;;;;3.07;1.77;;;11.30;99.90;;;;;;5049253;28;20998;-66
2023/03/10 12:38:42;;;;;;;2.17;1.17;;;11.30;99.90;;;;;;5045276;28;20441;-64
2023/03/10 12:41:08;;;;;;;3.53;1.70;;;11.20;99.90;;;;;;5050367;28;20444;-65
2023/03/10 12:43:56;;;;;;;2.87;1.40;;;11.10;99.90;;;;;;5051829;28;20469;-65
2023/03/10 12:46:39;;;;;;;3.30;1.60;;;11.10;99.90;;;;;;5044445;28;20836;-66
2023/03/10 12:49:27;;;;;;;4.10;1.40;;;11.00;99.90;;;;;;5048633;28;20962;-66
2023/03/10 12:52:05;;;;;;;3.00;1.50;;;10.90;99.90;;;;;;5051143;28;20432;-66
2023/03/10 12:55:07;;;;;;;2.23;1.60;;;10.80;99.90;;;;;;5054067;28;20805;-65
2023/03/10 12:57:51;;;;;;;1.70;1.20;;;10.70;99.90;;;;;;5050342;28;20482;-67